createdAt,value
2018-10-21T00:01:04.653Z,48.37
2018-10-21T00:03:33.012Z,48.57
2018-10-21T00:06:01.321Z,42.90
2018-10-21T00:08:29.766Z,46.97
2018-10-21T00:10:58.129Z,55.47
2018-10-21T00:13:26.544Z,43.77
2018-10-21T00:15:54.902Z,42.03
2018-10-21T00:18:23.283Z,35.97
2018-10-21T00:20:51.627Z,42.70
2018-10-21T00:23:19.956Z,45.40
2018-10-21T00:25:48.328Z,48.93
2018-10-21T00:28:16.702Z,48.47
2018-10-21T00:30:45.133Z,54.83
2018-10-21T00:33:13.573Z,52.43
2018-10-21T00:35:41.893Z,49.57
2018-10-21T00:38:10.253Z,47.73
2018-10-21T00:40:38.579Z,50.93
2018-10-21T00:43:07.000Z,51.57
2018-10-21T00:45:35.335Z,47.97
2018-10-21T00:48:03.654Z,61.03
2018-10-21T00:50:32.075Z,47.53
2018-10-21T00:53:00.414Z,55.67
2018-10-21T00:55:28.793Z,52.23
2018-10-21T00:57:57.128Z,42.03
2018-10-21T01:00:25.481Z,48.00
2018-10-21T01:02:54.161Z,49.00
2018-10-21T01:05:22.568Z,41.10
2018-10-21T01:07:50.974Z,47.63
2018-10-21T01:10:19.405Z,50.77
2018-10-21T01:12:47.840Z,52.50
2018-10-21T01:15:16.412Z,45.30
2018-10-21T01:17:44.737Z,50.30
2018-10-21T01:20:13.244Z,42.07
2018-10-21T01:22:42.259Z,46.07
2018-10-21T01:25:11.076Z,48.93
2018-10-21T01:27:40.682Z,48.97
2018-10-21T01:30:10.207Z,43.73
2018-10-21T01:32:38.588Z,58.10
2018-10-21T01:35:07.928Z,55.47
2018-10-21T01:37:36.419Z,58.50
2018-10-21T01:40:45.426Z,64.53
2018-10-21T01:43:15.205Z,54.50
2018-10-21T01:45:43.689Z,58.37
2018-10-21T01:48:13.238Z,50.43
2018-10-21T01:50:41.624Z,43.13
2018-10-21T01:53:11.127Z,55.10
2018-10-21T01:55:39.593Z,51.23
2018-10-21T01:58:08.136Z,42.80
2018-10-21T02:00:36.900Z,56.10
2018-10-21T02:03:05.587Z,41.03
2018-10-21T02:05:34.552Z,45.50
2018-10-21T02:08:02.945Z,47.60
2018-10-21T02:10:31.357Z,45.03
2018-10-21T02:12:59.703Z,56.77
2018-10-21T02:15:28.049Z,45.87
2018-10-21T02:17:56.413Z,47.53
2018-10-21T02:20:25.203Z,50.30
2018-10-21T02:22:53.727Z,43.23
2018-10-21T02:25:22.127Z,43.20
2018-10-21T02:27:51.222Z,39.93
2018-10-21T02:30:22.589Z,54.10
2018-10-21T02:32:51.665Z,57.77
2018-10-21T02:35:20.413Z,51.50
2018-10-21T02:37:49.145Z,48.17
2018-10-21T02:41:45.187Z,53.27
2018-10-21T02:44:20.805Z,46.10
2018-10-21T02:46:50.450Z,49.97
2018-10-21T02:49:19.398Z,48.07
2018-10-21T02:51:53.011Z,51.40
2018-10-21T02:54:25.297Z,43.80
2018-10-21T02:56:53.922Z,42.37
2018-10-21T02:59:22.742Z,39.87
2018-10-21T03:01:51.250Z,41.10
2018-10-21T03:04:19.784Z,39.87
2018-10-21T03:06:48.413Z,37.60
2018-10-21T03:09:16.980Z,45.90
2018-10-21T03:11:45.378Z,52.40
2018-10-21T03:14:13.923Z,51.33
2018-10-21T03:16:42.323Z,46.20
2018-10-21T03:19:10.642Z,46.93
2018-10-21T03:21:38.987Z,43.10
2018-10-21T03:24:07.331Z,41.90
2018-10-21T03:26:35.709Z,38.17
2018-10-21T03:29:04.047Z,40.03
2018-10-21T03:31:32.409Z,45.87
2018-10-21T03:34:00.944Z,40.00
2018-10-21T03:36:29.182Z,37.33
2018-10-21T03:38:57.590Z,40.47
2018-10-21T03:41:25.945Z,34.20
2018-10-21T03:43:54.259Z,35.17
2018-10-21T03:46:22.584Z,40.53
2018-10-21T03:48:51.183Z,42.73
2018-10-21T03:51:19.544Z,49.20
2018-10-21T03:53:47.991Z,40.27
2018-10-21T03:56:16.326Z,45.33
2018-10-21T03:58:44.735Z,36.93
2018-10-21T04:01:13.131Z,44.90
2018-10-21T04:03:41.468Z,47.53
2018-10-21T04:06:09.865Z,44.93
2018-10-21T04:08:38.379Z,44.40
2018-10-21T04:11:06.794Z,48.63
2018-10-21T04:13:35.225Z,42.07
2018-10-21T04:16:03.720Z,46.23
2018-10-21T04:18:32.058Z,50.20
2018-10-21T04:21:00.515Z,42.47
2018-10-21T04:23:28.956Z,52.17
2018-10-21T04:25:57.374Z,48.03
2018-10-21T04:28:25.770Z,39.90
2018-10-21T04:30:54.300Z,40.23
2018-10-21T04:33:53.090Z,41.30
2018-10-21T04:36:30.207Z,44.70
2018-10-21T04:40:08.272Z,41.33
2018-10-21T04:42:36.730Z,51.03
2018-10-21T04:45:05.545Z,42.53
2018-10-21T04:47:33.937Z,41.13
2018-10-21T04:50:02.280Z,37.60
2018-10-21T04:52:31.481Z,36.73
2018-10-21T04:55:06.437Z,40.00
2018-10-21T04:57:35.585Z,39.87
2018-10-21T05:00:04.072Z,36.70
2018-10-21T05:02:32.530Z,35.07
2018-10-21T05:05:01.021Z,33.00
2018-10-21T05:07:29.431Z,36.90
2018-10-21T05:09:57.811Z,42.47
2018-10-21T05:12:32.453Z,35.43
2018-10-21T05:15:00.810Z,33.43
2018-10-21T05:17:33.085Z,35.37
2018-10-21T05:20:01.454Z,29.60
2018-10-21T05:22:29.793Z,32.47
2018-10-21T05:24:58.190Z,29.20
2018-10-21T05:27:26.549Z,41.93
2018-10-21T05:29:54.975Z,34.07
2018-10-21T05:32:23.409Z,30.60
2018-10-21T05:34:51.765Z,31.90
2018-10-21T05:37:20.143Z,41.77
2018-10-21T05:39:48.548Z,38.73
2018-10-21T05:42:17.187Z,36.17
2018-10-21T05:44:45.625Z,32.10
2018-10-21T05:47:14.152Z,30.83
2018-10-21T05:49:42.419Z,38.20
2018-10-21T05:52:10.876Z,35.87
2018-10-21T05:54:41.160Z,30.77
2018-10-21T05:57:09.713Z,34.93
2018-10-21T05:59:38.146Z,37.63
2018-10-21T06:02:06.578Z,40.57
2018-10-21T06:04:35.022Z,34.87
2018-10-21T06:07:03.370Z,40.37
2018-10-21T06:09:31.797Z,37.37
2018-10-21T06:12:00.238Z,33.20
2018-10-21T06:14:28.634Z,36.03
2018-10-21T06:17:01.702Z,36.83
2018-10-21T06:21:38.430Z,35.53
2018-10-21T06:24:06.862Z,32.63
2018-10-21T06:26:35.288Z,31.50
2018-10-21T06:29:03.710Z,36.87
2018-10-21T06:31:32.186Z,36.37
2018-10-21T06:34:00.623Z,34.93
2018-10-21T06:36:29.044Z,39.13
2018-10-21T06:38:57.526Z,32.60
2018-10-21T06:41:25.900Z,41.77
2018-10-21T06:43:54.357Z,34.87
2018-10-21T06:46:22.765Z,36.17
2018-10-21T06:48:51.266Z,33.23
2018-10-21T06:51:19.641Z,36.40
2018-10-21T06:53:48.130Z,32.37
2018-10-21T06:56:16.676Z,34.17
2018-10-21T06:58:45.096Z,35.60
2018-10-21T07:01:13.458Z,36.60
2018-10-21T07:03:41.856Z,32.70
2018-10-21T07:06:13.206Z,40.03
2018-10-21T07:08:41.855Z,40.77
2018-10-21T07:11:10.264Z,37.17
2018-10-21T07:13:38.685Z,46.53
2018-10-21T07:16:07.585Z,39.47
2018-10-21T07:18:35.965Z,42.77
2018-10-21T07:21:04.446Z,40.63
2018-10-21T07:23:32.863Z,40.60
2018-10-21T07:26:01.707Z,43.03
2018-10-21T07:28:30.153Z,37.37
2018-10-21T07:30:58.790Z,37.60
2018-10-21T07:33:27.319Z,35.67
2018-10-21T07:35:55.728Z,40.90
2018-10-21T07:38:24.220Z,36.97
2018-10-21T07:40:52.712Z,36.20
2018-10-21T07:43:21.082Z,31.90
2018-10-21T07:45:49.542Z,35.20
2018-10-21T07:48:18.876Z,33.77
2018-10-21T07:50:47.242Z,35.87
2018-10-21T07:53:15.754Z,38.33
2018-10-21T07:55:44.266Z,26.93
2018-10-21T07:58:12.825Z,32.17
2018-10-21T08:00:41.191Z,29.47
2018-10-21T08:03:09.736Z,31.33
2018-10-21T08:05:49.323Z,30.10
2018-10-21T08:08:25.943Z,36.07
2018-10-21T08:10:54.325Z,28.00
2018-10-21T08:13:24.035Z,27.87
2018-10-21T08:15:52.431Z,24.13
2018-10-21T08:18:20.851Z,26.00
2018-10-21T08:20:50.195Z,26.07
2018-10-21T08:23:19.259Z,28.30
2018-10-21T08:25:49.050Z,24.93
2018-10-21T08:28:17.580Z,26.40
2018-10-21T08:30:45.839Z,24.63
2018-10-21T08:33:14.237Z,20.53
2018-10-21T08:35:42.659Z,18.97
2018-10-21T08:38:11.045Z,20.37
2018-10-21T08:40:39.446Z,17.60
2018-10-21T08:43:07.885Z,19.17
2018-10-21T08:45:36.342Z,23.53
2018-10-21T08:48:04.783Z,15.33
2018-10-21T08:50:33.207Z,18.60
2018-10-21T08:53:01.615Z,16.33
2018-10-21T08:55:30.107Z,14.50
2018-10-21T08:57:58.454Z,15.73
2018-10-21T09:00:26.895Z,17.50
2018-10-21T09:02:55.262Z,10.97
2018-10-21T09:05:23.851Z,13.23
2018-10-21T09:07:52.258Z,13.23
2018-10-21T09:10:20.797Z,13.80
2018-10-21T09:12:49.120Z,12.93
2018-10-21T09:15:18.791Z,19.53
2018-10-21T09:17:47.154Z,12.57
2018-10-21T09:20:16.715Z,16.20
2018-10-21T09:22:45.152Z,12.47
2018-10-21T09:25:14.048Z,9.90
2018-10-21T09:27:43.288Z,11.40
2018-10-21T09:30:13.245Z,12.10
2018-10-21T09:32:41.708Z,11.13
2018-10-21T09:35:12.216Z,9.30
2018-10-21T09:37:41.254Z,11.77
2018-10-21T09:40:11.207Z,9.93
2018-10-21T09:42:39.580Z,12.43
2018-10-21T09:45:09.234Z,9.37
2018-10-21T09:47:37.655Z,8.60
2018-10-21T09:50:06.217Z,8.27
2018-10-21T09:52:34.607Z,7.13
2018-10-21T09:55:03.231Z,8.20
2018-10-21T09:57:31.888Z,9.57
2018-10-21T10:00:00.310Z,9.40
2018-10-21T10:02:34.302Z,12.10
2018-10-21T10:05:02.996Z,8.63
2018-10-21T10:10:15.637Z,7.40
2018-10-21T10:12:44.123Z,9.40
2018-10-21T10:15:12.617Z,6.03
2018-10-21T10:17:41.504Z,4.90
2018-10-21T10:20:12.424Z,6.03
2018-10-21T10:22:42.305Z,4.13
2018-10-21T10:25:11.810Z,7.50
2018-10-21T10:27:41.178Z,6.03
2018-10-21T10:30:11.142Z,7.53
2018-10-21T10:32:41.208Z,8.27
2018-10-21T10:35:12.290Z,3.70
2018-10-21T10:37:40.931Z,4.37
2018-10-21T10:40:10.852Z,3.27
2018-10-21T10:42:39.250Z,5.77
2018-10-21T10:45:08.036Z,4.63
2018-10-21T10:47:36.766Z,3.47
2018-10-21T10:50:06.089Z,3.60
2018-10-21T10:52:34.466Z,2.70
2018-10-21T10:55:06.635Z,9.30
2018-10-21T10:57:35.004Z,3.13
2018-10-21T11:00:03.689Z,3.20
2018-10-21T11:02:31.833Z,7.60
2018-10-21T11:05:00.259Z,7.50
2018-10-21T11:07:28.933Z,5.20
2018-10-21T11:09:57.773Z,5.50
2018-10-21T11:12:26.218Z,4.50
2018-10-21T11:14:54.645Z,7.47
2018-10-21T11:17:23.104Z,4.67
2018-10-21T11:19:51.626Z,4.23
2018-10-21T11:22:20.148Z,5.13
2018-10-21T11:24:59.651Z,5.97
2018-10-21T11:27:34.663Z,2.93
2018-10-21T11:30:03.123Z,3.40
2018-10-21T11:32:31.715Z,4.53
2018-10-21T11:35:00.699Z,3.97
2018-10-21T11:37:29.746Z,4.43
2018-10-21T11:39:58.232Z,2.43
2018-10-21T11:42:26.660Z,6.67
2018-10-21T11:44:55.136Z,4.03
2018-10-21T11:47:23.718Z,6.80
2018-10-21T11:49:52.252Z,4.03
2018-10-21T11:52:20.777Z,3.67
2018-10-21T11:54:49.081Z,4.67
2018-10-21T11:57:17.644Z,4.13
2018-10-21T11:59:46.107Z,5.30
2018-10-21T12:02:14.528Z,4.63
2018-10-21T12:04:42.937Z,4.27
2018-10-21T12:07:11.393Z,6.10
2018-10-21T12:09:39.805Z,3.87
2018-10-21T12:12:08.460Z,4.00
2018-10-21T12:14:37.160Z,5.40
2018-10-21T12:17:05.757Z,6.03
2018-10-21T12:19:34.349Z,7.03
2018-10-21T12:22:02.790Z,103.03
2018-10-21T12:24:31.197Z,6.80
2018-10-21T12:26:59.593Z,5.40
2018-10-21T12:29:28.010Z,4.40
2018-10-21T12:31:56.404Z,3.77
2018-10-21T12:34:24.837Z,3.40
2018-10-21T12:36:53.270Z,3.77
2018-10-21T12:39:21.739Z,4.63
2018-10-21T12:41:50.317Z,3.87
2018-10-21T12:44:18.720Z,6.87
2018-10-21T12:46:47.131Z,5.57
2018-10-21T12:49:15.551Z,4.73
2018-10-21T12:51:43.914Z,6.03
2018-10-21T12:54:12.407Z,4.10
2018-10-21T12:56:40.926Z,3.60
2018-10-21T12:59:09.518Z,7.90
2018-10-21T13:01:37.944Z,7.93
2018-10-21T13:04:06.368Z,4.90
2018-10-21T13:06:34.752Z,6.17
2018-10-21T13:09:03.257Z,9.67
2018-10-21T13:11:31.650Z,6.60
2018-10-21T13:14:00.042Z,5.27
2018-10-21T13:16:28.460Z,9.43
2018-10-21T13:18:56.919Z,8.23
2018-10-21T13:21:25.322Z,9.13
2018-10-21T13:23:53.811Z,7.30
2018-10-21T13:26:22.184Z,7.97
2018-10-21T13:28:50.628Z,7.33
2018-10-21T13:31:19.946Z,5.50
2018-10-21T13:33:48.281Z,4.83
2018-10-21T13:36:16.690Z,6.30
2018-10-21T13:38:45.716Z,4.80
2018-10-21T13:41:14.198Z,5.87
2018-10-21T13:43:42.658Z,5.53
2018-10-21T13:46:11.197Z,6.53
2018-10-21T13:48:39.565Z,6.10
2018-10-21T13:51:07.948Z,3.43
2018-10-21T13:53:36.455Z,3.70
2018-10-21T13:56:04.909Z,3.20
2018-10-21T13:58:33.346Z,2.93
2018-10-21T14:01:01.900Z,15.03
2018-10-21T14:03:30.199Z,5.00
2018-10-21T14:05:58.646Z,4.50
2018-10-21T14:08:27.001Z,5.80
2018-10-21T14:10:55.359Z,2.70
2018-10-21T14:13:23.727Z,5.50
2018-10-21T14:15:52.216Z,4.50
2018-10-21T14:18:20.670Z,3.50
2018-10-21T14:20:49.061Z,3.00
2018-10-21T14:23:17.473Z,4.03
2018-10-21T14:25:45.839Z,2.87
2018-10-21T14:28:14.232Z,4.67
2018-10-21T14:30:42.576Z,4.50
2018-10-21T14:33:11.909Z,3.13
2018-10-21T14:35:40.227Z,3.50
2018-10-21T14:38:08.612Z,4.50
2018-10-21T14:40:37.466Z,3.83
2018-10-21T14:43:05.851Z,3.90
2018-10-21T14:45:34.296Z,8.53
2018-10-21T14:48:02.756Z,2.60
2018-10-21T14:50:31.126Z,2.10
2018-10-21T14:52:59.495Z,2.77
2018-10-21T14:55:27.921Z,2.90
2018-10-21T14:57:56.298Z,4.53
2018-10-21T15:00:24.737Z,3.77
2018-10-21T15:02:53.062Z,2.40
2018-10-21T15:05:21.428Z,3.20
2018-10-21T15:07:49.891Z,6.27
2018-10-21T15:10:18.350Z,2.50
2018-10-21T15:12:46.719Z,4.33
2018-10-21T15:15:15.036Z,3.57
2018-10-21T15:17:45.449Z,2.83
2018-10-21T15:20:14.216Z,5.97
2018-10-21T15:22:43.032Z,4.93
2018-10-21T15:25:12.165Z,2.70
2018-10-21T15:27:41.090Z,3.50
2018-10-21T15:30:10.304Z,8.37
2018-10-21T15:32:39.062Z,2.80
2018-10-21T15:35:07.479Z,6.80
2018-10-21T15:37:35.856Z,3.87
2018-10-21T15:40:04.266Z,2.93
2018-10-21T15:42:32.624Z,4.50
2018-10-21T15:45:01.084Z,5.37
2018-10-21T15:47:29.537Z,5.50
2018-10-21T15:49:57.978Z,6.80
2018-10-21T15:52:26.534Z,3.93
2018-10-21T15:54:54.870Z,4.73
2018-10-21T15:57:23.236Z,3.40
2018-10-21T15:59:51.571Z,5.40
2018-10-21T16:02:19.990Z,9.60
2018-10-21T16:04:48.258Z,3.10
2018-10-21T16:07:16.651Z,3.83
2018-10-21T16:09:45.223Z,6.57
2018-10-21T16:12:13.707Z,7.97
2018-10-21T16:14:42.144Z,5.10
2018-10-21T16:17:13.176Z,3.97
2018-10-21T16:19:41.600Z,5.37
2018-10-21T16:22:10.597Z,6.43
2018-10-21T16:24:39.030Z,4.43
2018-10-21T16:27:07.422Z,7.70
2018-10-21T16:29:36.960Z,6.93
2018-10-21T16:32:13.650Z,5.00
2018-10-21T16:34:41.905Z,4.43
2018-10-21T16:37:10.399Z,5.70
2018-10-21T16:39:38.844Z,5.60
2018-10-21T16:42:07.170Z,5.97
2018-10-21T16:44:35.520Z,8.27
2018-10-21T16:47:03.851Z,6.10
2018-10-21T16:49:32.143Z,9.93
2018-10-21T16:52:00.574Z,4.27
2018-10-21T16:54:28.943Z,5.97
2018-10-21T16:56:57.283Z,5.00
2018-10-21T16:59:25.729Z,5.80
2018-10-21T17:01:54.009Z,6.17
2018-10-21T17:04:22.505Z,5.03
2018-10-21T17:06:50.825Z,6.97
2018-10-21T17:09:19.367Z,4.70
2018-10-21T17:11:47.605Z,5.13
2018-10-21T17:14:15.928Z,7.40
2018-10-21T17:16:44.331Z,11.07
2018-10-21T17:19:12.825Z,7.57
2018-10-21T17:21:41.056Z,7.50
2018-10-21T17:24:09.506Z,8.80
2018-10-21T17:26:37.877Z,6.10
2018-10-21T17:29:06.293Z,5.90
2018-10-21T17:31:34.651Z,8.90
2018-10-21T17:34:03.035Z,10.70
2018-10-21T17:36:31.441Z,10.90
2018-10-21T17:38:59.850Z,11.13
2018-10-21T17:41:28.181Z,11.00
2018-10-21T17:43:56.488Z,12.33
2018-10-21T17:46:24.876Z,11.13
2018-10-21T17:48:54.189Z,12.80
2018-10-21T17:51:22.469Z,9.57
2018-10-21T17:53:50.842Z,13.17
2018-10-21T17:56:19.157Z,9.23
2018-10-21T17:58:47.506Z,9.20
2018-10-21T18:01:15.911Z,8.63
2018-10-21T18:03:44.281Z,9.47
2018-10-21T18:06:12.632Z,11.10
2018-10-21T18:08:40.926Z,14.40
2018-10-21T18:11:09.310Z,10.00
2018-10-21T18:13:37.645Z,8.40
2018-10-21T18:16:06.068Z,8.17
2018-10-21T18:18:34.368Z,13.60
2018-10-21T18:21:02.713Z,7.87
2018-10-21T18:23:31.106Z,6.87
2018-10-21T18:25:59.420Z,10.77
2018-10-21T18:28:27.722Z,11.70
2018-10-21T18:30:56.123Z,8.20
2018-10-21T18:33:24.483Z,7.33
2018-10-21T18:35:52.779Z,8.63
2018-10-21T18:38:21.157Z,7.77
2018-10-21T18:40:49.629Z,9.43
2018-10-21T18:43:17.839Z,9.20
2018-10-21T18:45:46.170Z,5.87
2018-10-21T18:48:14.516Z,6.40
2018-10-21T18:50:42.907Z,10.13
2018-10-21T18:53:11.256Z,15.50
2018-10-21T18:55:39.589Z,13.83
2018-10-21T18:58:07.921Z,7.00
2018-10-21T19:00:36.264Z,9.50
2018-10-21T19:03:04.633Z,9.17
2018-10-21T19:05:32.961Z,12.53
2018-10-21T19:08:01.290Z,9.70
2018-10-21T19:10:29.674Z,8.60
2018-10-21T19:13:00.050Z,10.43
2018-10-21T19:15:26.372Z,13.87
2018-10-21T19:17:54.730Z,8.53
2018-10-21T19:20:23.052Z,8.90
2018-10-21T19:22:51.418Z,9.50
2018-10-21T19:25:19.989Z,10.23
2018-10-21T19:27:48.193Z,10.03
2018-10-21T19:30:16.574Z,8.57
2018-10-21T19:32:44.917Z,10.60
2018-10-21T19:35:14.213Z,11.63
2018-10-21T19:37:42.557Z,10.00
2018-10-21T19:40:13.216Z,8.60
2018-10-21T19:42:42.020Z,9.40
2018-10-21T19:45:11.252Z,12.93
2018-10-21T19:47:39.937Z,16.60
2018-10-21T19:50:09.816Z,13.17
2018-10-21T19:52:38.499Z,8.57
2018-10-21T19:55:06.904Z,13.10
2018-10-21T19:57:35.248Z,10.40
2018-10-21T20:00:04.168Z,10.47
2018-10-21T20:02:32.527Z,8.33
2018-10-21T20:05:00.847Z,7.80
2018-10-21T20:07:29.238Z,11.30
2018-10-21T20:09:57.598Z,9.40
2018-10-21T20:12:25.886Z,10.50
2018-10-21T20:14:54.440Z,12.53
2018-10-21T20:17:23.097Z,7.90
2018-10-21T20:19:51.412Z,7.90
2018-10-21T20:22:19.706Z,11.90
2018-10-21T20:24:48.033Z,11.47
2018-10-21T20:27:16.394Z,16.23
2018-10-21T20:29:45.716Z,12.80
2018-10-21T20:32:14.121Z,9.70
2018-10-21T20:34:42.407Z,10.33
2018-10-21T20:37:10.727Z,12.80
2018-10-21T20:39:39.086Z,9.40
2018-10-21T20:42:07.516Z,10.57
2018-10-21T20:44:35.756Z,9.87
2018-10-21T20:47:04.097Z,7.97
2018-10-21T20:49:32.414Z,9.63
2018-10-21T20:52:00.838Z,16.33
2018-10-21T20:54:34.408Z,11.97
2018-10-21T20:57:07.944Z,8.83
2018-10-21T20:59:36.893Z,9.20
2018-10-21T21:02:05.678Z,10.03
2018-10-21T21:04:34.092Z,9.20
2018-10-21T21:07:02.430Z,9.50
2018-10-21T21:09:30.747Z,12.40
2018-10-21T21:11:59.092Z,12.70
2018-10-21T21:14:27.427Z,9.37
2018-10-21T21:16:55.803Z,8.47
2018-10-21T21:19:24.183Z,7.07
2018-10-21T21:21:52.646Z,10.23
2018-10-21T21:24:20.928Z,15.23
2018-10-21T21:26:49.593Z,10.30
2018-10-21T21:29:18.019Z,9.93
2018-10-21T21:31:46.737Z,11.87
2018-10-21T21:34:15.588Z,9.27
2018-10-21T21:36:43.837Z,9.67
2018-10-21T21:39:13.504Z,11.23
2018-10-21T21:41:43.103Z,14.83
2018-10-21T21:44:11.514Z,13.23
2018-10-21T21:46:40.662Z,13.50
2018-10-21T21:49:10.235Z,15.37
2018-10-21T21:51:39.054Z,11.40
2018-10-21T21:54:08.281Z,10.10
2018-10-21T21:56:36.610Z,13.50
2018-10-21T21:59:05.140Z,10.60
2018-10-21T22:01:33.514Z,14.63
2018-10-21T22:04:01.964Z,13.00
2018-10-21T22:06:30.229Z,11.23
2018-10-21T22:08:58.842Z,13.97
2018-10-21T22:11:27.169Z,13.80
2018-10-21T22:13:55.495Z,20.00
2018-10-21T22:16:23.956Z,12.63
2018-10-21T22:18:52.300Z,14.27
2018-10-21T22:21:20.611Z,13.33
2018-10-21T22:23:49.035Z,14.20
2018-10-21T22:26:17.432Z,10.90
2018-10-21T22:28:45.757Z,13.97
2018-10-21T22:31:14.069Z,14.73
2018-10-21T22:33:42.386Z,14.57
2018-10-21T22:36:10.845Z,14.30
2018-10-21T22:38:39.141Z,17.20
2018-10-21T22:41:07.543Z,12.67
2018-10-21T22:43:35.937Z,11.17
2018-10-21T22:46:04.370Z,13.77
2018-10-21T22:48:32.648Z,10.40
2018-10-21T22:51:01.027Z,10.10
2018-10-21T22:53:29.392Z,17.13
2018-10-21T22:55:57.674Z,10.80
2018-10-21T22:58:26.021Z,15.43
2018-10-21T23:00:54.339Z,12.93
2018-10-21T23:03:22.627Z,14.17
2018-10-21T23:05:50.989Z,12.87
2018-10-21T23:08:19.306Z,14.43
2018-10-21T23:10:47.621Z,14.23
2018-10-21T23:13:16.021Z,12.07
2018-10-21T23:15:44.341Z,18.10
2018-10-21T23:18:12.689Z,12.27
2018-10-21T23:20:40.925Z,14.90
2018-10-21T23:23:09.261Z,15.10
2018-10-21T23:25:37.571Z,16.50
2018-10-21T23:28:05.982Z,12.73
2018-10-21T23:30:34.285Z,16.27
2018-10-21T23:33:03.847Z,12.73
2018-10-21T23:35:32.153Z,16.13
2018-10-21T23:38:00.454Z,14.50
2018-10-21T23:40:28.874Z,13.80
2018-10-21T23:42:57.400Z,14.93
2018-10-21T23:45:25.804Z,21.83
2018-10-21T23:47:54.153Z,13.47
2018-10-21T23:50:22.394Z,18.57
2018-10-21T23:52:50.704Z,14.20
2018-10-21T23:55:19.027Z,15.03
2018-10-21T23:57:47.334Z,16.30
